Time;durP1;ratioP1;P1;durP2;ratioP2;P2;SDS_P1;SDS_P2;PMS_P1;PMS_P2;Temp;Humidity;BMP_temperature;BMP_pressure;BME280_temperature;BME280_humidity;BME280_pressure;Samples;Min_cycle;Max_cycle;Signal;HPM_P1;HPM_P2
2023/03/04 00:00:16;;;;;;;105.53;43.30;;;;;;;;;;5043854;28;20087;-77
2023/03/04 00:02:42;;;;;;;87.43;36.07;;;;;;;;;;5052283;28;20596;-77
2023/03/04 00:05:10;;;;;;;91.77;36.33;;;;;;;;;;5058478;28;20289;-76
2023/03/04 00:07:36;;;;;;;87.33;35.63;;;;;;;;;;5039913;28;20024;-77
2023/03/04 00:10:03;;;;;;;77.00;32.40;;;;;;;;;;5060511;28;20289;-76
2023/03/04 00:12:31;;;;;;;79.43;33.07;;;;;;;;;;5041460;28;20348;-76
2023/03/04 00:14:59;;;;;;;83.90;34.83;;;;;;;;;;5059735;28;20340;-76
2023/03/04 00:17:25;;;;;;;85.87;30.57;;;;;;;;;;5044545;28;21095;-77
2023/03/04 00:19:51;;;;;;;72.60;30.13;;;;;;;;;;5041930;28;20413;-76
2023/03/04 00:22:17;;;;;;;62.10;27.10;;;;;;;;;;5042525;28;20120;-75
2023/03/04 00:24:43;;;;;;;68.33;29.77;;;;;;;;;;5042120;28;20720;-76
2023/03/04 00:27:09;;;;;;;75.87;29.13;;;;;;;;;;5043589;28;20119;-76
2023/03/04 00:29:35;;;;;;;64.27;25.30;;;;;;;;;;5048236;28;20444;-77
2023/03/04 00:32:01;;;;;;;60.77;26.97;;;;;;;;;;5058062;28;20029;-77
2023/03/04 00:34:27;;;;;;;59.80;26.50;;;;;;;;;;5042355;28;20052;-77
2023/03/04 00:36:56;;;;;;;58.27;25.37;;;;;;;;;;5058389;28;20306;-76
2023/03/04 00:39:22;;;;;;;62.33;27.20;;;;;;;;;;5060128;28;20116;-76
2023/03/04 00:41:51;;;;;;;54.50;25.80;;;;;;;;;;5041059;28;20374;-76
2023/03/04 00:44:17;;;;;;;54.80;23.33;;;;;;;;;;5058880;28;20033;-76
2023/03/04 00:46:43;;;;;;;54.37;24.90;;;;;;;;;;5060369;28;20275;-77
2023/03/04 00:49:09;;;;;;;55.23;24.07;;;;;;;;;;5056922;28;20292;-77
2023/03/04 00:51:36;;;;;;;57.30;23.67;;;;;;;;;;5047142;28;20524;-77
2023/03/04 00:54:02;;;;;;;53.97;22.23;;;;;;;;;;5040803;28;20279;-76
2023/03/04 00:56:30;;;;;;;50.47;23.27;;;;;;;;;;5044612;28;20270;-76
2023/03/04 00:58:58;;;;;;;47.90;20.63;;;;;;;;;;5041656;28;20291;-77
2023/03/04 01:01:24;;;;;;;46.17;20.57;;;;;;;;;;5057666;28;20312;-77
2023/03/04 01:03:50;;;;;;;35.53;17.63;;;;;;;;;;5040485;28;20174;-77
2023/03/04 01:06:16;;;;;;;42.83;19.17;;;;;;;;;;5039189;28;20040;-77
2023/03/04 01:08:43;;;;;;;49.33;18.53;;;;;;;;;;5060544;28;20024;-77
2023/03/04 01:11:09;;;;;;;39.73;19.37;;;;;;;;;;5058538;28;20029;-75
2023/03/04 01:13:35;;;;;;;36.87;17.30;;;;;;;;;;5062168;28;20325;-77
2023/03/04 01:16:02;;;;;;;44.90;19.03;;;;;;;;;;5044066;28;20036;-77
2023/03/04 01:18:28;;;;;;;38.67;17.57;;;;;;;;;;5046407;28;20044;-77
2023/03/04 01:20:54;;;;;;;40.47;18.40;;;;;;;;;;5061507;28;20025;-75
2023/03/04 01:23:20;;;;;;;45.87;18.50;;;;;;;;;;5043602;28;20272;-76
2023/03/04 01:25:46;;;;;;;43.23;17.67;;;;;;;;;;5042678;28;20278;-75
2023/03/04 01:28:12;;;;;;;41.03;18.13;;;;;;;;;;5044060;28;20060;-77
2023/03/04 01:30:38;;;;;;;34.00;15.80;;;;;;;;;;5052370;28;20034;-77
2023/03/04 01:33:07;;;;;;;36.87;16.37;;;;;;;;;;5044871;28;20468;-77
2023/03/04 01:35:32;;;;;;;39.10;17.20;;;;;;;;;;5061807;28;20025;-77
2023/03/04 01:37:58;;;;;;;41.10;17.07;;;;;;;;;;5043843;28;20622;-76
2023/03/04 01:40:25;;;;;;;37.43;16.60;;;;;;;;;;5061473;28;20024;-77
2023/03/04 01:42:51;;;;;;;36.50;15.73;;;;;;;;;;5046600;28;20368;-76
2023/03/04 01:45:19;;;;;;;35.47;15.20;;;;;;;;;;5044598;28;20331;-77
2023/03/04 01:47:47;;;;;;;34.90;14.37;;;;;;;;;;5042979;28;20318;-77
2023/03/04 01:50:29;;;;;;;37.00;16.20;;;;;;;;;;5047177;28;20299;-76
2023/03/04 01:52:55;;;;;;;39.13;14.93;;;;;;;;;;5043704;28;20100;-76
2023/03/04 01:55:22;;;;;;;33.53;14.17;;;;;;;;;;5042473;28;20722;-76
2023/03/04 01:57:48;;;;;;;38.93;15.37;;;;;;;;;;5058393;28;20295;-75
2023/03/04 02:00:21;;;;;;;36.47;13.97;;;;;;;;;;5042969;28;20658;-75
2023/03/04 02:02:47;;;;;;;31.27;12.95;;;;;;;;;;5044274;28;20028;-76
2023/03/04 02:05:14;;;;;;;34.80;14.30;;;;;;;;;;5043617;28;20477;-77
2023/03/04 02:07:40;;;;;;;30.33;12.50;;;;;;;;;;5043148;28;20800;-76
2023/03/04 02:10:06;;;;;;;30.50;13.37;;;;;;;;;;5041566;28;20742;-76
2023/03/04 02:12:32;;;;;;;29.07;12.80;;;;;;;;;;5059770;28;20275;-76
2023/03/04 02:14:58;;;;;;;36.67;13.77;;;;;;;;;;5044728;28;20278;-76
2023/03/04 02:17:25;;;;;;;30.13;12.00;;;;;;;;;;5044546;28;20028;-76
2023/03/04 02:19:56;;;;;;;32.67;11.43;;;;;;;;;;5041182;28;20271;-76
2023/03/04 02:22:22;;;;;;;26.20;11.10;;;;;;;;;;5045533;28;20279;-77
2023/03/04 02:24:57;;;;;;;22.60;10.83;;;;;;;;;;5059259;28;20272;-76
2023/03/04 02:27:23;;;;;;;40.50;12.03;;;;;;;;;;5042146;28;20056;-76
2023/03/04 02:29:49;;;;;;;27.70;9.90;;;;;;;;;;5043568;28;20683;-75
2023/03/04 02:32:15;;;;;;;24.53;10.33;;;;;;;;;;5044269;28;20025;-76
2023/03/04 02:34:46;;;;;;;29.87;10.23;;;;;;;;;;5051200;28;20062;-76
2023/03/04 02:37:14;;;;;;;19.93;10.23;;;;;;;;;;5046365;28;20036;-75
2023/03/04 02:39:44;;;;;;;25.13;10.67;;;;;;;;;;5063399;28;20392;-75
2023/03/04 02:42:10;;;;;;;29.47;9.77;;;;;;;;;;5041872;28;20067;-76
2023/03/04 02:44:37;;;;;;;29.63;9.87;;;;;;;;;;5074587;28;20263;-76
2023/03/04 02:47:05;;;;;;;30.67;10.03;;;;;;;;;;5049918;28;20021;-76
2023/03/04 02:49:32;;;;;;;27.50;9.53;;;;;;;;;;5052431;28;20271;-76
2023/03/04 02:52:00;;;;;;;30.30;8.93;;;;;;;;;;5061247;28;20588;-76
2023/03/04 02:54:26;;;;;;;27.40;9.93;;;;;;;;;;5076441;28;20440;-76
2023/03/04 02:56:53;;;;;;;29.23;9.77;;;;;;;;;;5049997;28;20029;-76
2023/03/04 02:59:19;;;;;;;38.83;11.00;;;;;;;;;;5057694;28;20029;-76
2023/03/04 03:01:45;;;;;;;28.30;9.20;;;;;;;;;;5058783;28;20274;-76
2023/03/04 03:04:12;;;;;;;27.40;9.60;;;;;;;;;;5058689;28;20312;-76
2023/03/04 03:06:38;;;;;;;25.20;8.73;;;;;;;;;;5061591;28;20055;-77
2023/03/04 03:09:04;;;;;;;29.43;9.23;;;;;;;;;;5048431;28;20440;-76
2023/03/04 03:11:30;;;;;;;30.93;10.57;;;;;;;;;;5051153;28;20173;-76
2023/03/04 03:13:56;;;;;;;35.30;10.67;;;;;;;;;;5041015;28;20311;-75
2023/03/04 03:16:23;;;;;;;27.60;9.13;;;;;;;;;;5054595;28;20028;-77
2023/03/04 03:18:49;;;;;;;38.43;10.47;;;;;;;;;;5058249;28;20032;-76
2023/03/04 03:21:15;;;;;;;27.47;9.87;;;;;;;;;;5055616;28;20626;-75
2023/03/04 03:23:41;;;;;;;31.00;9.80;;;;;;;;;;5055298;28;20021;-77
2023/03/04 03:26:07;;;;;;;25.23;8.60;;;;;;;;;;5061018;28;20017;-76
2023/03/04 03:28:33;;;;;;;25.97;8.20;;;;;;;;;;5058015;28;20366;-76
2023/03/04 03:30:59;;;;;;;26.97;8.83;;;;;;;;;;5045650;28;20020;-76
2023/03/04 03:33:25;;;;;;;28.73;10.13;;;;;;;;;;5050387;28;20038;-75
2023/03/04 03:35:51;;;;;;;28.83;8.87;;;;;;;;;;5070783;28;20032;-75
2023/03/04 03:38:17;;;;;;;27.50;8.90;;;;;;;;;;5057432;28;20440;-77
2023/03/04 03:40:42;;;;;;;33.60;9.97;;;;;;;;;;5061133;28;20089;-76
2023/03/04 03:43:08;;;;;;;33.27;10.20;;;;;;;;;;5053658;28;20021;-75
2023/03/04 03:45:34;;;;;;;28.50;9.50;;;;;;;;;;5051929;28;20504;-76
2023/03/04 03:48:00;;;;;;;25.77;8.87;;;;;;;;;;5057436;28;20055;-76
2023/03/04 03:50:28;;;;;;;30.57;9.23;;;;;;;;;;5045777;28;20031;-76
2023/03/04 03:52:54;;;;;;;30.40;9.30;;;;;;;;;;5047792;28;20115;-76
2023/03/04 03:55:20;;;;;;;27.57;9.23;;;;;;;;;;5055348;28;20329;-76
2023/03/04 03:57:46;;;;;;;27.67;8.57;;;;;;;;;;5040597;28;20095;-76
2023/03/04 04:00:12;;;;;;;30.33;8.73;;;;;;;;;;5068973;28;20258;-76
2023/03/04 04:02:39;;;;;;;27.87;8.10;;;;;;;;;;5055686;28;20103;-76
2023/03/04 04:05:05;;;;;;;27.87;8.60;;;;;;;;;;5040885;28;20040;-76
2023/03/04 04:07:31;;;;;;;32.60;8.70;;;;;;;;;;5056499;28;20444;-75
2023/03/04 04:09:57;;;;;;;21.07;7.27;;;;;;;;;;5057318;28;20033;-76
2023/03/04 04:12:26;;;;;;;31.00;8.60;;;;;;;;;;5056313;28;20039;-76
2023/03/04 04:14:51;;;;;;;25.27;7.23;;;;;;;;;;5056760;28;20025;-76
2023/03/04 04:17:18;;;;;;;24.47;7.60;;;;;;;;;;5056111;28;20024;-75
2023/03/04 04:19:43;;;;;;;28.47;8.80;;;;;;;;;;5058452;28;20063;-76
2023/03/04 04:22:14;;;;;;;24.87;7.57;;;;;;;;;;5042374;28;20029;-76
2023/03/04 04:24:40;;;;;;;28.73;8.03;;;;;;;;;;5039732;28;20025;-77
2023/03/04 04:27:06;;;;;;;31.27;7.60;;;;;;;;;;5058578;28;20032;-76
2023/03/04 04:29:32;;;;;;;25.77;7.10;;;;;;;;;;5059681;28;20028;-76
2023/03/04 04:31:58;;;;;;;29.27;7.17;;;;;;;;;;5042482;28;20025;-75
2023/03/04 04:34:24;;;;;;;25.13;7.47;;;;;;;;;;5059365;28;20044;-76
2023/03/04 04:36:50;;;;;;;31.37;7.77;;;;;;;;;;5041631;28;20108;-77
2023/03/04 04:39:16;;;;;;;36.20;8.30;;;;;;;;;;5041627;28;20108;-76
2023/03/04 04:41:43;;;;;;;27.83;9.27;;;;;;;;;;5041932;28;20036;-76
2023/03/04 04:44:09;;;;;;;32.87;11.97;;;;;;;;;;5060069;28;20025;-76
2023/03/04 04:46:36;;;;;;;25.60;8.73;;;;;;;;;;5048830;28;20696;-76
2023/03/04 04:49:02;;;;;;;32.23;10.77;;;;;;;;;;5062683;28;20376;-76
2023/03/04 04:51:28;;;;;;;29.47;9.47;;;;;;;;;;5046976;28;20040;-76
2023/03/04 04:53:54;;;;;;;38.13;12.93;;;;;;;;;;5044270;28;20040;-76
2023/03/04 04:56:21;;;;;;;33.63;14.07;;;;;;;;;;5061130;28;20029;-76
2023/03/04 04:58:48;;;;;;;37.13;15.83;;;;;;;;;;5061765;28;20036;-74
2023/03/04 05:01:14;;;;;;;44.43;16.63;;;;;;;;;;5062405;28;20028;-76
2023/03/04 05:03:40;;;;;;;31.33;13.00;;;;;;;;;;5046017;28;20442;-76
2023/03/04 05:06:07;;;;;;;26.90;10.97;;;;;;;;;;5056447;28;20024;-76
2023/03/04 05:08:34;;;;;;;31.13;10.07;;;;;;;;;;5045848;28;20119;-76
2023/03/04 05:11:00;;;;;;;34.63;9.43;;;;;;;;;;5045062;28;20057;-75
2023/03/04 05:13:26;;;;;;;29.20;8.20;;;;;;;;;;5061581;28;20036;-76
2023/03/04 05:15:52;;;;;;;20.53;6.40;;;;;;;;;;5047666;28;20086;-76
2023/03/04 05:18:19;;;;;;;29.80;7.33;;;;;;;;;;5049589;28;20135;-75
2023/03/04 05:20:45;;;;;;;23.90;6.83;;;;;;;;;;5044828;28;20017;-75
2023/03/04 05:23:11;;;;;;;23.63;5.53;;;;;;;;;;5045241;28;20095;-76
2023/03/04 05:25:37;;;;;;;25.97;7.10;;;;;;;;;;5062147;28;20581;-76
2023/03/04 05:28:03;;;;;;;18.47;4.90;;;;;;;;;;5048711;28;20039;-77
2023/03/04 05:30:30;;;;;;;23.67;5.30;;;;;;;;;;5045379;28;20062;-75
2023/03/04 05:32:56;;;;;;;25.17;6.07;;;;;;;;;;5055986;28;20020;-76
2023/03/04 05:35:22;;;;;;;31.43;5.47;;;;;;;;;;5064668;28;20040;-76
2023/03/04 05:37:47;;;;;;;19.97;5.23;;;;;;;;;;5065818;28;20517;-76
2023/03/04 05:40:13;;;;;;;25.20;5.13;;;;;;;;;;5061039;28;20044;-77
2023/03/04 05:42:39;;;;;;;18.60;4.00;;;;;;;;;;5044964;28;20098;-76
2023/03/04 05:45:06;;;;;;;16.60;4.50;;;;;;;;;;5044301;28;20029;-75
2023/03/04 05:47:32;;;;;;;18.80;4.90;;;;;;;;;;5053535;28;20629;-76
2023/03/04 05:49:58;;;;;;;27.50;5.23;;;;;;;;;;5046367;28;20028;-75
2023/03/04 05:52:24;;;;;;;23.53;5.93;;;;;;;;;;5044409;28;20024;-76
2023/03/04 05:54:50;;;;;;;21.87;4.83;;;;;;;;;;5058844;28;20044;-76
2023/03/04 05:57:16;;;;;;;15.87;4.63;;;;;;;;;;5044550;28;20025;-76
2023/03/04 05:59:42;;;;;;;20.47;4.80;;;;;;;;;;5045270;28;20028;-76
2023/03/04 06:02:08;;;;;;;15.07;5.00;;;;;;;;;;5047723;28;20082;-76
2023/03/04 06:04:34;;;;;;;18.80;4.67;;;;;;;;;;5062528;28;20056;-76
2023/03/04 06:07:00;;;;;;;20.20;3.80;;;;;;;;;;5046183;28;20123;-76
2023/03/04 06:09:25;;;;;;;24.20;4.47;;;;;;;;;;5043972;28;20132;-76
2023/03/04 06:11:51;;;;;;;14.60;3.50;;;;;;;;;;5042308;28;21676;-76
2023/03/04 06:14:17;;;;;;;15.37;3.20;;;;;;;;;;5043970;28;20106;-74
2023/03/04 06:16:43;;;;;;;24.43;5.17;;;;;;;;;;5043319;28;20036;-76
2023/03/04 06:19:09;;;;;;;19.87;4.07;;;;;;;;;;5052327;28;20519;-76
2023/03/04 06:21:35;;;;;;;19.87;3.93;;;;;;;;;;5043464;28;20028;-74
2023/03/04 06:24:01;;;;;;;15.17;3.47;;;;;;;;;;5060634;28;20020;-76
2023/03/04 06:26:30;;;;;;;12.00;3.23;;;;;;;;;;5043805;28;20551;-76
2023/03/04 06:28:56;;;;;;;21.93;3.90;;;;;;;;;;5060260;28;20029;-76
2023/03/04 06:31:22;;;;;;;22.93;4.40;;;;;;;;;;5044025;28;20452;-76
2023/03/04 06:33:48;;;;;;;17.80;4.47;;;;;;;;;;5060279;28;20035;-75
2023/03/04 06:36:14;;;;;;;16.43;4.43;;;;;;;;;;5060166;28;21131;-75
2023/03/04 06:38:40;;;;;;;15.83;5.13;;;;;;;;;;5043767;28;20123;-76
2023/03/04 06:41:07;;;;;;;19.20;4.90;;;;;;;;;;5059225;28;20025;-75
2023/03/04 06:43:33;;;;;;;18.90;4.00;;;;;;;;;;5051911;28;20682;-76
2023/03/04 06:45:59;;;;;;;19.67;4.70;;;;;;;;;;5046779;28;20061;-75
2023/03/04 06:48:26;;;;;;;17.80;3.50;;;;;;;;;;5044217;28;20118;-76
2023/03/04 06:50:52;;;;;;;18.20;3.50;;;;;;;;;;5044945;28;20365;-76
2023/03/04 06:53:18;;;;;;;15.83;4.27;;;;;;;;;;5045161;28;20029;-76
2023/03/04 06:55:44;;;;;;;16.93;3.20;;;;;;;;;;5043517;28;20062;-76
2023/03/04 06:58:10;;;;;;;17.23;3.67;;;;;;;;;;5043769;28;20033;-76
2023/03/04 07:00:36;;;;;;;19.07;4.17;;;;;;;;;;5042363;28;20083;-75
2023/03/04 07:03:04;;;;;;;22.87;3.30;;;;;;;;;;5061444;28;20039;-76
2023/03/04 07:05:30;;;;;;;18.97;3.73;;;;;;;;;;5053954;28;20035;-76
2023/03/04 07:07:56;;;;;;;17.80;3.73;;;;;;;;;;5059442;28;20032;-76
2023/03/04 07:10:22;;;;;;;17.10;4.87;;;;;;;;;;5061277;28;20058;-76
2023/03/04 07:12:48;;;;;;;14.17;3.17;;;;;;;;;;5060938;28;20029;-75
2023/03/04 07:15:16;;;;;;;22.73;4.97;;;;;;;;;;5042107;28;20640;-76
2023/03/04 07:17:42;;;;;;;22.50;4.20;;;;;;;;;;5040881;28;20024;-75
2023/03/04 07:20:08;;;;;;;17.87;3.40;;;;;;;;;;5043518;28;20491;-77
2023/03/04 07:22:34;;;;;;;14.97;3.87;;;;;;;;;;5046136;28;20029;-76
2023/03/04 07:25:00;;;;;;;17.60;3.17;;;;;;;;;;5043486;28;20031;-76
2023/03/04 07:27:26;;;;;;;10.57;3.47;;;;;;;;;;5040991;28;20046;-76
2023/03/04 07:29:52;;;;;;;20.07;3.80;;;;;;;;;;5040551;28;20040;-76
2023/03/04 07:32:18;;;;;;;12.13;2.83;;;;;;;;;;5042936;28;20086;-76
2023/03/04 07:34:44;;;;;;;12.17;3.37;;;;;;;;;;5041486;28;20041;-76
2023/03/04 07:37:10;;;;;;;15.47;4.03;;;;;;;;;;5059358;28;20048;-75
2023/03/04 07:39:36;;;;;;;17.33;2.93;;;;;;;;;;5060045;28;20037;-77
2023/03/04 07:42:02;;;;;;;10.83;2.67;;;;;;;;;;5056831;28;20028;-76
2023/03/04 07:44:28;;;;;;;14.13;3.33;;;;;;;;;;5043346;28;20044;-75
2023/03/04 07:46:54;;;;;;;15.80;3.03;;;;;;;;;;5059680;28;20020;-77
2023/03/04 07:49:20;;;;;;;18.13;3.70;;;;;;;;;;5060040;28;20035;-76
2023/03/04 07:51:46;;;;;;;24.93;4.17;;;;;;;;;;5044793;28;20941;-77
2023/03/04 07:54:12;;;;;;;16.13;4.00;;;;;;;;;;5059460;28;20048;-77
2023/03/04 07:56:38;;;;;;;15.60;3.80;;;;;;;;;;5041592;28;20033;-77
2023/03/04 07:59:04;;;;;;;16.57;3.10;;;;;;;;;;5046509;28;20037;-77
2023/03/04 08:01:32;;;;;;;19.73;4.40;;;;;;;;;;5044448;28;20021;-77
2023/03/04 08:03:58;;;;;;;12.77;3.90;;;;;;;;;;5054230;28;20397;-77
2023/03/04 08:06:27;;;;;;;17.23;3.37;;;;;;;;;;5059824;28;20028;-76
2023/03/04 08:08:59;;;;;;;15.10;3.20;;;;;;;;;;5059234;28;20111;-77
2023/03/04 08:11:25;;;;;;;13.43;2.97;;;;;;;;;;5049905;28;20028;-77
2023/03/04 08:13:53;;;;;;;12.00;2.77;;;;;;;;;;5042441;28;20036;-76
2023/03/04 08:16:19;;;;;;;18.53;3.00;;;;;;;;;;5044619;28;20033;-77
2023/03/04 08:18:47;;;;;;;16.53;3.03;;;;;;;;;;5042640;28;20029;-77
2023/03/04 08:21:18;;;;;;;12.90;3.27;;;;;;;;;;5041189;28;20472;-77
2023/03/04 08:23:44;;;;;;;13.80;3.00;;;;;;;;;;5061439;28;20087;-77
2023/03/04 08:26:48;;;;;;;14.17;3.47;;;;;;;;;;5061508;28;20037;-78
2023/03/04 08:29:16;;;;;;;12.90;3.20;;;;;;;;;;5062810;28;20507;-77
2023/03/04 08:31:43;;;;;;;16.03;3.63;;;;;;;;;;5060026;28;20358;-77
2023/03/04 08:34:10;;;;;;;17.80;3.27;;;;;;;;;;5041392;28;20029;-78
2023/03/04 08:36:36;;;;;;;14.50;3.40;;;;;;;;;;5041314;28;20124;-77
2023/03/04 08:39:03;;;;;;;13.00;2.67;;;;;;;;;;5041174;28;20119;-77
2023/03/04 08:41:29;;;;;;;10.40;2.63;;;;;;;;;;5048238;28;20029;-77
2023/03/04 08:43:55;;;;;;;10.10;2.73;;;;;;;;;;5049649;28;20025;-78
2023/03/04 08:46:21;;;;;;;17.03;2.63;;;;;;;;;;5056845;28;20024;-78
2023/03/04 08:48:47;;;;;;;20.87;3.30;;;;;;;;;;5064242;28;20111;-77
2023/03/04 08:51:14;;;;;;;13.07;3.20;;;;;;;;;;5048339;28;20060;-76
2023/03/04 08:53:40;;;;;;;12.93;3.17;;;;;;;;;;5061734;28;20041;-77
2023/03/04 08:56:06;;;;;;;13.17;3.33;;;;;;;;;;5063858;28;20036;-78
2023/03/04 08:58:32;;;;;;;9.43;2.33;;;;;;;;;;5056556;28;20040;-78
2023/03/04 09:00:59;;;;;;;15.53;2.33;;;;;;;;;;5056895;28;20079;-77
2023/03/04 09:03:25;;;;;;;13.53;2.90;;;;;;;;;;5056578;28;20025;-77
2023/03/04 09:05:51;;;;;;;12.03;2.37;;;;;;;;;;5046384;28;20112;-76
2023/03/04 09:08:18;;;;;;;14.27;2.17;;;;;;;;;;5048096;28;20154;-77
2023/03/04 09:10:44;;;;;;;10.67;2.13;;;;;;;;;;5052857;28;20044;-76
2023/03/04 09:13:11;;;;;;;14.80;2.63;;;;;;;;;;5047510;28;20060;-77
2023/03/04 09:15:37;;;;;;;13.17;1.97;;;;;;;;;;5040182;28;20029;-77
2023/03/04 09:18:04;;;;;;;13.50;2.43;;;;;;;;;;5038857;28;20515;-76
2023/03/04 09:20:32;;;;;;;11.50;2.30;;;;;;;;;;5053204;28;20040;-77
2023/03/04 09:22:58;;;;;;;18.07;2.27;;;;;;;;;;5048296;28;20036;-77
2023/03/04 09:25:24;;;;;;;11.57;2.03;;;;;;;;;;5054776;28;20030;-76
2023/03/04 09:27:50;;;;;;;11.10;3.00;;;;;;;;;;5072680;28;20543;-76
2023/03/04 09:30:19;;;;;;;9.33;2.23;;;;;;;;;;5054185;28;20085;-76
2023/03/04 09:32:47;;;;;;;14.90;2.20;;;;;;;;;;5051713;28;20058;-76
2023/03/04 09:35:15;;;;;;;5.50;1.83;;;;;;;;;;5059808;28;20029;-75
2023/03/04 09:37:41;;;;;;;14.03;2.97;;;;;;;;;;5059848;28;20053;-77
2023/03/04 09:40:09;;;;;;;7.50;2.10;;;;;;;;;;5059451;28;20039;-76
2023/03/04 09:42:40;;;;;;;6.87;2.33;;;;;;;;;;5059154;28;20348;-77
2023/03/04 09:45:07;;;;;;;10.80;2.23;;;;;;;;;;5069135;28;20020;-77
2023/03/04 09:47:36;;;;;;;7.20;1.67;;;;;;;;;;5076962;28;20028;-76
2023/03/04 09:50:04;;;;;;;7.60;1.80;;;;;;;;;;5053767;28;20020;-77
2023/03/04 09:52:33;;;;;;;12.23;2.07;;;;;;;;;;5051383;28;20056;-76
2023/03/04 09:55:15;;;;;;;9.67;1.80;;;;;;;;;;5059921;28;20502;-76
2023/03/04 09:57:51;;;;;;;8.33;2.30;;;;;;;;;;5055405;28;20029;-77
2023/03/04 10:00:23;;;;;;;11.90;1.83;;;;;;;;;;5040618;28;20133;-76
2023/03/04 10:03:04;;;;;;;8.37;2.23;;;;;;;;;;5047231;28;20396;-76
2023/03/04 10:05:34;;;;;;;10.23;2.30;;;;;;;;;;5066114;28;20040;-77
2023/03/04 10:08:05;;;;;;;12.87;2.50;;;;;;;;;;5059234;28;20047;-76
2023/03/04 10:10:37;;;;;;;8.20;2.20;;;;;;;;;;5059628;28;20025;-76
2023/03/04 10:13:04;;;;;;;8.57;2.08;;;;;;;;;;5059047;28;20025;-76
2023/03/04 10:15:33;;;;;;;9.10;2.00;;;;;;;;;;5059277;28;20037;-76
2023/03/04 10:18:06;;;;;;;9.63;2.43;;;;;;;;;;5054941;28;20037;-77
2023/03/04 10:20:46;;;;;;;8.13;2.00;;;;;;;;;;5062510;28;20029;-77
2023/03/04 10:23:15;;;;;;;10.77;2.73;;;;;;;;;;5053446;28;20029;-76
2023/03/04 10:25:45;;;;;;;11.93;2.20;;;;;;;;;;5063796;28;20048;-76
2023/03/04 10:28:14;;;;;;;3.73;1.30;;;;;;;;;;5044875;28;20057;-76
2023/03/04 10:30:40;;;;;;;5.43;1.90;;;;;;;;;;5058072;28;20044;-75
2023/03/04 10:33:13;;;;;;;7.87;2.57;;;;;;;;;;5042057;28;20033;-76
2023/03/04 10:35:42;;;;;;;12.02;2.47;;;;;;;;;;5058899;28;20033;-77
2023/03/04 10:38:09;;;;;;;7.43;1.90;;;;;;;;;;5050099;28;20453;-76
2023/03/04 10:40:39;;;;;;;7.20;1.70;;;;;;;;;;5050190;28;20036;-76
2023/03/04 10:43:07;;;;;;;7.00;1.67;;;;;;;;;;5057996;28;20020;-75
2023/03/04 10:45:37;;;;;;;9.20;1.77;;;;;;;;;;5060458;28;20021;-76
2023/03/04 10:48:04;;;;;;;5.57;1.37;;;;;;;;;;5058839;28;20029;-76
2023/03/04 10:50:31;;;;;;;8.93;2.10;;;;;;;;;;5059984;28;20028;-77
2023/03/04 10:52:57;;;;;;;8.13;1.70;;;;;;;;;;5059275;28;20570;-77
2023/03/04 10:55:28;;;;;;;8.17;2.27;;;;;;;;;;5045906;28;20033;-76
2023/03/04 10:57:55;;;;;;;7.03;2.13;;;;;;;;;;5064921;28;20163;-76
2023/03/04 11:00:30;;;;;;;15.33;2.67;;;;;;;;;;5056432;28;20033;-76
2023/03/04 11:03:15;;;;;;;9.23;2.70;;;;;;;;;;5059830;28;20025;-75
2023/03/04 11:05:41;;;;;;;9.67;2.23;;;;;;;;;;5050320;28;20040;-76
2023/03/04 11:08:16;;;;;;;7.30;1.93;;;;;;;;;;5041595;28;20036;-76
2023/03/04 11:10:42;;;;;;;8.83;2.17;;;;;;;;;;5059630;28;20033;-75
2023/03/04 11:13:11;;;;;;;11.80;2.70;;;;;;;;;;5041421;28;20107;-75
2023/03/04 11:15:56;;;;;;;12.63;2.63;;;;;;;;;;5059104;28;20033;-76
2023/03/04 11:18:42;;;;;;;12.50;2.63;;;;;;;;;;5041915;28;20051;-76
2023/03/04 11:21:15;;;;;;;7.70;2.00;;;;;;;;;;5040748;28;20036;-74
2023/03/04 11:23:46;;;;;;;11.45;2.00;;;;;;;;;;5044674;28;20103;-78
2023/03/04 11:26:20;;;;;;;7.25;2.10;;;;;;;;;;5058483;28;20051;-76
2023/03/04 11:28:51;;;;;;;6.97;2.20;;;;;;;;;;5060397;28;20468;-77
2023/03/04 11:31:23;;;;;;;7.07;2.07;;;;;;;;;;5040127;28;20025;-76
2023/03/04 11:33:53;;;;;;;6.80;2.00;;;;;;;;;;5055437;28;20449;-75
2023/03/04 11:36:39;;;;;;;10.30;1.90;;;;;;;;;;5058221;28;20029;-75
2023/03/04 11:39:11;;;;;;;5.90;1.77;;;;;;;;;;5041630;28;20037;-75
2023/03/04 11:41:43;;;;;;;6.40;1.77;;;;;;;;;;5050022;28;20020;-75
2023/03/04 11:44:11;;;;;;;10.52;1.90;;;;;;;;;;5060787;28;20021;-76
2023/03/04 11:46:43;;;;;;;6.50;2.00;;;;;;;;;;5041549;28;20053;-76
2023/03/04 11:49:31;;;;;;;9.00;2.05;;;;;;;;;;5044159;28;20029;-76
2023/03/04 11:52:16;;;;;;;7.73;1.63;;;;;;;;;;5057872;28;20715;-75
2023/03/04 11:54:41;;;;;;;8.27;1.60;;;;;;;;;;5059902;28;20059;-76
2023/03/04 11:57:27;;;;;;;6.70;2.17;;;;;;;;;;5042329;28;20504;-75
2023/03/04 11:59:53;;;;;;;5.03;1.60;;;;;;;;;;5044406;28;20052;-76
2023/03/04 12:02:20;;;;;;;3.83;1.40;;;;;;;;;;5043363;28;20471;-75
2023/03/04 12:04:58;;;;;;;8.23;1.80;;;;;;;;;;5050303;28;20043;-76
2023/03/04 12:07:37;;;;;;;6.80;1.40;;;;;;;;;;5057067;28;20025;-75
2023/03/04 12:10:15;;;;;;;5.40;1.17;;;;;;;;;;5056627;28;20036;-75
2023/03/04 12:13:00;;;;;;;6.47;1.30;;;;;;;;;;5050087;28;20173;-75
2023/03/04 12:15:26;;;;;;;3.80;1.50;;;;;;;;;;5048370;28;20093;-75
2023/03/04 12:17:58;;;;;;;5.33;1.70;;;;;;;;;;5044257;28;20067;-76
2023/03/04 12:20:38;;;;;;;9.82;1.98;;;;;;;;;;5051091;28;20024;-76
2023/03/04 12:23:17;;;;;;;7.90;1.80;;;;;;;;;;5057545;28;20021;-76
2023/03/04 12:26:00;;;;;;;6.97;1.50;;;;;;;;;;5057203;28;20017;-76
2023/03/04 12:28:32;;;;;;;5.00;1.40;;;;;;;;;;5047267;28;20115;-76
2023/03/04 12:31:17;;;;;;;3.28;1.40;;;;;;;;;;5048122;28;20036;-77
2023/03/04 12:33:43;;;;;;;4.60;1.13;;;;;;;;;;5058972;28;20028;-77
2023/03/04 12:36:18;;;;;;;9.30;1.97;;;;;;;;;;5050825;28;20540;-76
2023/03/04 12:39:03;;;;;;;9.77;1.40;;;;;;;;;;5045240;28;20098;-76
2023/03/04 12:41:29;;;;;;;5.43;1.07;;;;;;;;;;5057776;28;20376;-75
2023/03/04 12:44:15;;;;;;;4.73;1.00;;;;;;;;;;5041263;28;20039;-75
2023/03/04 12:46:41;;;;;;;5.10;0.97;;;;;;;;;;5058023;28;20025;-77
2023/03/04 12:49:33;;;;;;;3.17;0.73;;;;;;;;;;5058877;28;20046;-76
2023/03/04 12:51:59;;;;;;;3.33;0.97;;;;;;;;;;5040683;28;20036;-76
2023/03/04 12:54:28;;;;;;;4.13;1.17;;;;;;;;;;5039607;28;21686;-76
2023/03/04 12:56:57;;;;;;;6.80;1.10;;;;;;;;;;5041240;28;20161;-76
2023/03/04 12:59:25;;;;;;;5.07;1.43;;;;;;;;;;5058689;28;20098;-77
2023/03/04 13:01:54;;;;;;;6.57;1.40;;;;;;;;;;5060242;28;20464;-75
2023/03/04 13:04:22;;;;;;;4.30;0.90;;;;;;;;;;5057045;28;20556;-75
2023/03/04 13:07:07;;;;;;;8.93;1.07;;;;;;;;;;5042365;28;20021;-76
2023/03/04 13:09:37;;;;;;;1.17;0.97;;;;;;;;;;5049978;28;20032;-76
2023/03/04 13:12:17;;;;;;;9.00;1.40;;;;;;;;;;5059807;28;20033;-75
2023/03/04 13:15:02;;;;;;;5.07;0.97;;;;;;;;;;5044622;28;20460;-75
2023/03/04 13:17:40;;;;;;;4.17;1.20;;;;;;;;;;5048859;28;20821;-78
2023/03/04 13:20:18;;;;;;;5.90;1.40;;;;;;;;;;5042450;28;20021;-75
2023/03/04 13:22:46;;;;;;;4.23;0.70;;;;;;;;;;5061384;28;20119;-76
2023/03/04 13:25:30;;;;;;;2.43;0.77;;;;;;;;;;5043850;28;20038;-75
2023/03/04 13:28:02;;;;;;;4.90;1.37;;;;;;;;;;5047402;28;20032;-76
2023/03/04 13:30:31;;;;;;;4.22;0.90;;;;;;;;;;5044428;28;20119;-76
2023/03/04 13:33:09;;;;;;;2.60;0.97;;;;;;;;;;5060721;28;20024;-75
2023/03/04 13:35:48;;;;;;;4.87;1.20;;;;;;;;;;5042639;28;20162;-75
2023/03/04 13:38:29;;;;;;;2.73;1.10;;;;;;;;;;5063073;28;20021;-76
2023/03/04 13:41:07;;;;;;;3.20;1.00;;;;;;;;;;5049555;28;20477;-77
2023/03/04 13:43:46;;;;;;;4.20;1.40;;;;;;;;;;5048656;28;20160;-76
2023/03/04 13:46:18;;;;;;;4.10;1.17;;;;;;;;;;5066091;28;20020;-76
2023/03/04 13:48:47;;;;;;;5.70;1.27;;;;;;;;;;5060136;28;20051;-76
2023/03/04 13:51:23;;;;;;;3.60;1.03;;;;;;;;;;5060410;28;20032;-76
2023/03/04 13:53:58;;;;;;;2.00;0.87;;;;;;;;;;5060882;28;20033;-76
2023/03/04 13:56:27;;;;;;;3.63;0.97;;;;;;;;;;5043960;28;20028;-75
2023/03/04 13:59:08;;;;;;;3.40;1.70;;;;;;;;;;5042648;28;20029;-75
2023/03/04 14:01:34;;;;;;;7.60;1.40;;;;;;;;;;5060300;28;20438;-76
2023/03/04 14:04:01;;;;;;;4.83;1.37;;;;;;;;;;5050671;28;20064;-76
2023/03/04 14:06:30;;;;;;;2.20;1.13;;;;;;;;;;5041912;28;20060;-76
2023/03/04 14:08:57;;;;;;;5.40;1.30;;;;;;;;;;5041234;28;20039;-76
2023/03/04 14:11:23;;;;;;;6.40;1.70;;;;;;;;;;5058668;28;21662;-76
2023/03/04 14:13:49;;;;;;;4.60;1.30;;;;;;;;;;5041980;28;20132;-76
2023/03/04 14:16:21;;;;;;;10.40;1.87;;;;;;;;;;5059682;28;20028;-75
2023/03/04 14:19:01;;;;;;;5.63;1.65;;;;;;;;;;5046225;28;20484;-76
2023/03/04 14:21:28;;;;;;;3.00;1.63;;;;;;;;;;5050617;28;20039;-76
2023/03/04 14:24:01;;;;;;;10.13;2.27;;;;;;;;;;5045187;28;20025;-76
2023/03/04 14:26:29;;;;;;;3.03;1.20;;;;;;;;;;5050462;28;20029;-75
2023/03/04 14:28:58;;;;;;;4.20;1.53;;;;;;;;;;5057183;28;20917;-76
2023/03/04 14:31:28;;;;;;;4.53;1.33;;;;;;;;;;5042871;28;20548;-75
2023/03/04 14:33:58;;;;;;;3.67;1.47;;;;;;;;;;5044089;28;20032;-75
2023/03/04 14:36:24;;;;;;;4.63;1.43;;;;;;;;;;5047170;28;20032;-74
2023/03/04 14:38:57;;;;;;;7.13;1.63;;;;;;;;;;5047994;28;20129;-76